sensor_id;sensor_type;location;lat;lon;timestamp;P1;durP1;ratioP1;P2;durP2;ratioP2
64520;SDS011;50896;46.714;17.322;2023-08-12T00:01:17;5.18;;;2.15;;
64520;SDS011;50896;46.714;17.322;2023-08-12T00:03:47;3.05;;;2.10;;
64520;SDS011;50896;46.714;17.322;2023-08-12T00:06:15;4.22;;;2.10;;
64520;SDS011;50896;46.714;17.322;2023-08-12T00:08:42;6.93;;;3.20;;
64520;SDS011;50896;46.714;17.322;2023-08-12T00:11:09;4.60;;;2.47;;
64520;SDS011;50896;46.714;17.322;2023-08-12T00:13:35;2.70;;;2.25;;
64520;SDS011;50896;46.714;17.322;2023-08-12T00:16:03;2.35;;;2.00;;
64520;SDS011;50896;46.714;17.322;2023-08-12T00:18:30;2.85;;;2.20;;
64520;SDS011;50896;46.714;17.322;2023-08-12T00:21:06;3.17;;;1.98;;
64520;SDS011;50896;46.714;17.322;2023-08-12T00:23:37;3.33;;;2.45;;
64520;SDS011;50896;46.714;17.322;2023-08-12T00:26:09;5.00;;;2.60;;
64520;SDS011;50896;46.714;17.322;2023-08-12T00:28:37;3.60;;;2.45;;
64520;SDS011;50896;46.714;17.322;2023-08-12T00:31:04;2.75;;;2.28;;
64520;SDS011;50896;46.714;17.322;2023-08-12T00:33:32;2.40;;;2.10;;
64520;SDS011;50896;46.714;17.322;2023-08-12T00:35:58;3.92;;;2.30;;
64520;SDS011;50896;46.714;17.322;2023-08-12T00:38:26;3.45;;;2.30;;
64520;SDS011;50896;46.714;17.322;2023-08-12T00:40:54;4.03;;;2.20;;
64520;SDS011;50896;46.714;17.322;2023-08-12T00:43:21;5.53;;;2.42;;
64520;SDS011;50896;46.714;17.322;2023-08-12T00:45:48;2.60;;;2.20;;
64520;SDS011;50896;46.714;17.322;2023-08-12T00:48:15;2.30;;;2.10;;
64520;SDS011;50896;46.714;17.322;2023-08-12T00:50:43;3.42;;;2.28;;
64520;SDS011;50896;46.714;17.322;2023-08-12T00:53:12;3.25;;;2.50;;
64520;SDS011;50896;46.714;17.322;2023-08-12T00:55:41;6.40;;;2.43;;
64520;SDS011;50896;46.714;17.322;2023-08-12T00:58:08;5.07;;;2.28;;
64520;SDS011;50896;46.714;17.322;2023-08-12T01:00:35;9.23;;;2.30;;
64520;SDS011;50896;46.714;17.322;2023-08-12T01:03:02;6.25;;;2.20;;
64520;SDS011;50896;46.714;17.322;2023-08-12T01:05:30;2.50;;;2.30;;
64520;SDS011;50896;46.714;17.322;2023-08-12T01:07:57;2.97;;;2.63;;
64520;SDS011;50896;46.714;17.322;2023-08-12T01:10:24;3.17;;;2.53;;
64520;SDS011;50896;46.714;17.322;2023-08-12T01:12:59;4.03;;;2.30;;
64520;SDS011;50896;46.714;17.322;2023-08-12T01:15:29;6.47;;;2.58;;
64520;SDS011;50896;46.714;17.322;2023-08-12T01:17:56;3.63;;;2.47;;
64520;SDS011;50896;46.714;17.322;2023-08-12T01:20:27;2.70;;;2.40;;
64520;SDS011;50896;46.714;17.322;2023-08-12T01:22:58;3.78;;;2.45;;
64520;SDS011;50896;46.714;17.322;2023-08-12T01:25:41;4.50;;;2.80;;
64520;SDS011;50896;46.714;17.322;2023-08-12T01:28:08;3.88;;;2.65;;
64520;SDS011;50896;46.714;17.322;2023-08-12T01:30:36;6.93;;;2.63;;
64520;SDS011;50896;46.714;17.322;2023-08-12T01:35:55;2.33;;;2.13;;
64520;SDS011;50896;46.714;17.322;2023-08-12T01:38:41;7.28;;;2.47;;
64520;SDS011;50896;46.714;17.322;2023-08-12T01:41:10;3.25;;;2.60;;
64520;SDS011;50896;46.714;17.322;2023-08-12T01:43:39;2.95;;;2.20;;
64520;SDS011;50896;46.714;17.322;2023-08-12T01:46:08;2.50;;;2.30;;
64520;SDS011;50896;46.714;17.322;2023-08-12T01:48:36;4.03;;;2.50;;
64520;SDS011;50896;46.714;17.322;2023-08-12T01:51:02;2.88;;;2.63;;
64520;SDS011;50896;46.714;17.322;2023-08-12T01:53:29;4.88;;;2.67;;
64520;SDS011;50896;46.714;17.322;2023-08-12T01:55:56;2.90;;;2.15;;
64520;SDS011;50896;46.714;17.322;2023-08-12T01:58:24;4.28;;;2.70;;
64520;SDS011;50896;46.714;17.322;2023-08-12T02:00:53;3.78;;;2.65;;
64520;SDS011;50896;46.714;17.322;2023-08-12T02:03:19;3.75;;;2.60;;
64520;SDS011;50896;46.714;17.322;2023-08-12T02:05:46;3.20;;;2.55;;
64520;SDS011;50896;46.714;17.322;2023-08-12T02:08:14;4.22;;;2.78;;
64520;SDS011;50896;46.714;17.322;2023-08-12T02:10:41;4.05;;;2.63;;
64520;SDS011;50896;46.714;17.322;2023-08-12T02:13:07;3.08;;;2.42;;
64520;SDS011;50896;46.714;17.322;2023-08-12T02:15:35;3.33;;;2.50;;
64520;SDS011;50896;46.714;17.322;2023-08-12T02:18:01;4.15;;;2.60;;
64520;SDS011;50896;46.714;17.322;2023-08-12T02:20:28;4.15;;;2.28;;
64520;SDS011;50896;46.714;17.322;2023-08-12T02:22:56;4.05;;;2.50;;
64520;SDS011;50896;46.714;17.322;2023-08-12T02:25:23;5.07;;;2.95;;
64520;SDS011;50896;46.714;17.322;2023-08-12T02:27:49;3.65;;;2.45;;
64520;SDS011;50896;46.714;17.322;2023-08-12T02:30:16;4.72;;;2.72;;
64520;SDS011;50896;46.714;17.322;2023-08-12T02:32:43;2.83;;;2.40;;
64520;SDS011;50896;46.714;17.322;2023-08-12T02:35:10;3.33;;;2.50;;
64520;SDS011;50896;46.714;17.322;2023-08-12T02:37:37;3.55;;;2.30;;
64520;SDS011;50896;46.714;17.322;2023-08-12T02:40:04;3.33;;;2.20;;
64520;SDS011;50896;46.714;17.322;2023-08-12T02:42:32;2.88;;;2.10;;
64520;SDS011;50896;46.714;17.322;2023-08-12T02:44:59;5.00;;;2.42;;
64520;SDS011;50896;46.714;17.322;2023-08-12T02:47:27;3.10;;;2.20;;
64520;SDS011;50896;46.714;17.322;2023-08-12T02:49:54;4.55;;;2.30;;
64520;SDS011;50896;46.714;17.322;2023-08-12T02:52:21;3.60;;;2.58;;
64520;SDS011;50896;46.714;17.322;2023-08-12T02:54:48;3.17;;;2.50;;
64520;SDS011;50896;46.714;17.322;2023-08-12T02:57:15;3.95;;;2.40;;
64520;SDS011;50896;46.714;17.322;2023-08-12T02:59:42;5.72;;;2.90;;
64520;SDS011;50896;46.714;17.322;2023-08-12T03:02:09;4.03;;;2.60;;
64520;SDS011;50896;46.714;17.322;2023-08-12T03:04:36;5.63;;;2.72;;
64520;SDS011;50896;46.714;17.322;2023-08-12T03:07:03;4.95;;;2.53;;
64520;SDS011;50896;46.714;17.322;2023-08-12T03:09:30;3.53;;;2.40;;
64520;SDS011;50896;46.714;17.322;2023-08-12T03:11:57;6.97;;;2.65;;
64520;SDS011;50896;46.714;17.322;2023-08-12T03:14:31;2.95;;;2.50;;
64520;SDS011;50896;46.714;17.322;2023-08-12T03:16:59;3.30;;;2.30;;
64520;SDS011;50896;46.714;17.322;2023-08-12T03:19:27;6.45;;;2.28;;
64520;SDS011;50896;46.714;17.322;2023-08-12T03:21:54;3.63;;;2.60;;
64520;SDS011;50896;46.714;17.322;2023-08-12T03:24:22;3.92;;;2.78;;
64520;SDS011;50896;46.714;17.322;2023-08-12T03:26:49;6.10;;;3.10;;
64520;SDS011;50896;46.714;17.322;2023-08-12T03:29:16;3.45;;;2.45;;
64520;SDS011;50896;46.714;17.322;2023-08-12T03:31:43;2.80;;;2.40;;
64520;SDS011;50896;46.714;17.322;2023-08-12T03:34:10;3.67;;;2.40;;
64520;SDS011;50896;46.714;17.322;2023-08-12T03:36:38;2.90;;;2.38;;
64520;SDS011;50896;46.714;17.322;2023-08-12T03:39:05;2.60;;;2.30;;
64520;SDS011;50896;46.714;17.322;2023-08-12T03:41:32;6.43;;;2.28;;
64520;SDS011;50896;46.714;17.322;2023-08-12T03:44:04;4.38;;;2.72;;
64520;SDS011;50896;46.714;17.322;2023-08-12T03:46:31;3.80;;;2.42;;
64520;SDS011;50896;46.714;17.322;2023-08-12T03:48:58;5.30;;;2.22;;
64520;SDS011;50896;46.714;17.322;2023-08-12T03:51:25;3.97;;;2.60;;
64520;SDS011;50896;46.714;17.322;2023-08-12T03:53:52;5.05;;;2.53;;
64520;SDS011;50896;46.714;17.322;2023-08-12T03:56:19;5.75;;;2.75;;
64520;SDS011;50896;46.714;17.322;2023-08-12T03:58:46;3.55;;;2.60;;
64520;SDS011;50896;46.714;17.322;2023-08-12T04:01:13;4.43;;;2.53;;
64520;SDS011;50896;46.714;17.322;2023-08-12T04:03:40;4.13;;;2.50;;
64520;SDS011;50896;46.714;17.322;2023-08-12T04:06:07;3.13;;;2.00;;
64520;SDS011;50896;46.714;17.322;2023-08-12T04:08:34;4.63;;;2.15;;
64520;SDS011;50896;46.714;17.322;2023-08-12T04:11:01;4.28;;;2.03;;
64520;SDS011;50896;46.714;17.322;2023-08-12T04:13:27;4.15;;;2.35;;
64520;SDS011;50896;46.714;17.322;2023-08-12T04:15:54;2.60;;;2.40;;
64520;SDS011;50896;46.714;17.322;2023-08-12T04:18:21;5.75;;;2.60;;
64520;SDS011;50896;46.714;17.322;2023-08-12T04:20:49;3.25;;;2.40;;
64520;SDS011;50896;46.714;17.322;2023-08-12T04:23:17;2.78;;;1.92;;
64520;SDS011;50896;46.714;17.322;2023-08-12T04:25:48;2.60;;;2.30;;
64520;SDS011;50896;46.714;17.322;2023-08-12T04:28:17;3.45;;;2.15;;
64520;SDS011;50896;46.714;17.322;2023-08-12T04:30:47;3.05;;;1.92;;
64520;SDS011;50896;46.714;17.322;2023-08-12T04:33:19;3.13;;;1.85;;
64520;SDS011;50896;46.714;17.322;2023-08-12T04:38:17;3.13;;;2.40;;
64520;SDS011;50896;46.714;17.322;2023-08-12T04:40:46;2.92;;;2.15;;
64520;SDS011;50896;46.714;17.322;2023-08-12T04:43:13;6.80;;;3.40;;
64520;SDS011;50896;46.714;17.322;2023-08-12T04:45:44;7.35;;;3.10;;
64520;SDS011;50896;46.714;17.322;2023-08-12T04:48:12;7.88;;;3.08;;
64520;SDS011;50896;46.714;17.322;2023-08-12T04:50:41;5.68;;;2.70;;
64520;SDS011;50896;46.714;17.322;2023-08-12T04:53:08;4.93;;;2.88;;
64520;SDS011;50896;46.714;17.322;2023-08-12T04:55:35;4.85;;;2.70;;
64520;SDS011;50896;46.714;17.322;2023-08-12T04:58:03;3.90;;;2.55;;
64520;SDS011;50896;46.714;17.322;2023-08-12T05:00:30;3.92;;;2.75;;
64520;SDS011;50896;46.714;17.322;2023-08-12T05:02:58;4.32;;;2.78;;
64520;SDS011;50896;46.714;17.322;2023-08-12T05:05:25;3.80;;;2.50;;
64520;SDS011;50896;46.714;17.322;2023-08-12T05:07:53;5.00;;;2.72;;
64520;SDS011;50896;46.714;17.322;2023-08-12T05:10:21;4.57;;;2.50;;
64520;SDS011;50896;46.714;17.322;2023-08-12T05:12:49;4.13;;;2.70;;
64520;SDS011;50896;46.714;17.322;2023-08-12T05:15:18;9.27;;;3.03;;
64520;SDS011;50896;46.714;17.322;2023-08-12T05:17:46;4.13;;;2.70;;
64520;SDS011;50896;46.714;17.322;2023-08-12T05:20:16;4.15;;;2.63;;
64520;SDS011;50896;46.714;17.322;2023-08-12T05:22:43;4.13;;;2.70;;
64520;SDS011;50896;46.714;17.322;2023-08-12T05:25:10;4.43;;;3.13;;
64520;SDS011;50896;46.714;17.322;2023-08-12T05:27:37;4.78;;;2.80;;
64520;SDS011;50896;46.714;17.322;2023-08-12T05:30:05;4.47;;;2.80;;
64520;SDS011;50896;46.714;17.322;2023-08-12T05:32:32;3.70;;;2.70;;
64520;SDS011;50896;46.714;17.322;2023-08-12T05:34:59;5.32;;;2.40;;
64520;SDS011;50896;46.714;17.322;2023-08-12T05:37:26;3.28;;;2.72;;
64520;SDS011;50896;46.714;17.322;2023-08-12T05:39:53;2.63;;;2.30;;
64520;SDS011;50896;46.714;17.322;2023-08-12T05:42:19;3.20;;;2.63;;
64520;SDS011;50896;46.714;17.322;2023-08-12T05:44:46;4.05;;;2.47;;
64520;SDS011;50896;46.714;17.322;2023-08-12T05:47:13;5.45;;;2.65;;
64520;SDS011;50896;46.714;17.322;2023-08-12T05:49:39;6.93;;;2.60;;
64520;SDS011;50896;46.714;17.322;2023-08-12T05:52:06;5.28;;;2.22;;
64520;SDS011;50896;46.714;17.322;2023-08-12T05:54:33;4.63;;;2.33;;
64520;SDS011;50896;46.714;17.322;2023-08-12T05:57:00;4.28;;;2.80;;
64520;SDS011;50896;46.714;17.322;2023-08-12T05:59:27;3.58;;;2.50;;
64520;SDS011;50896;46.714;17.322;2023-08-12T06:01:54;4.70;;;2.35;;
64520;SDS011;50896;46.714;17.322;2023-08-12T06:04:20;2.85;;;2.38;;
64520;SDS011;50896;46.714;17.322;2023-08-12T06:06:47;5.07;;;2.53;;
64520;SDS011;50896;46.714;17.322;2023-08-12T06:09:14;5.70;;;2.60;;
64520;SDS011;50896;46.714;17.322;2023-08-12T06:11:41;5.63;;;2.30;;
64520;SDS011;50896;46.714;17.322;2023-08-12T06:14:07;3.75;;;2.55;;
64520;SDS011;50896;46.714;17.322;2023-08-12T06:16:34;4.32;;;2.45;;
64520;SDS011;50896;46.714;17.322;2023-08-12T06:19:01;5.70;;;2.47;;
64520;SDS011;50896;46.714;17.322;2023-08-12T06:21:28;3.15;;;1.92;;
64520;SDS011;50896;46.714;17.322;2023-08-12T06:23:55;5.07;;;2.58;;
64520;SDS011;50896;46.714;17.322;2023-08-12T06:26:22;4.10;;;2.67;;
64520;SDS011;50896;46.714;17.322;2023-08-12T06:28:49;3.55;;;2.35;;
64520;SDS011;50896;46.714;17.322;2023-08-12T06:31:16;3.35;;;2.45;;
64520;SDS011;50896;46.714;17.322;2023-08-12T06:33:42;4.25;;;2.75;;
64520;SDS011;50896;46.714;17.322;2023-08-12T06:36:09;2.92;;;2.40;;
64520;SDS011;50896;46.714;17.322;2023-08-12T06:38:36;4.10;;;2.47;;
64520;SDS011;50896;46.714;17.322;2023-08-12T06:41:03;5.35;;;2.42;;
64520;SDS011;50896;46.714;17.322;2023-08-12T06:43:30;3.10;;;2.40;;
64520;SDS011;50896;46.714;17.322;2023-08-12T06:45:56;3.90;;;2.30;;
64520;SDS011;50896;46.714;17.322;2023-08-12T06:48:23;5.38;;;2.40;;
64520;SDS011;50896;46.714;17.322;2023-08-12T06:50:54;4.93;;;2.33;;
64520;SDS011;50896;46.714;17.322;2023-08-12T06:53:21;5.88;;;2.38;;
64520;SDS011;50896;46.714;17.322;2023-08-12T06:55:49;4.82;;;2.15;;
64520;SDS011;50896;46.714;17.322;2023-08-12T06:58:16;3.65;;;2.28;;
64520;SDS011;50896;46.714;17.322;2023-08-12T07:00:42;2.67;;;1.90;;
64520;SDS011;50896;46.714;17.322;2023-08-12T07:03:09;5.35;;;2.30;;
64520;SDS011;50896;46.714;17.322;2023-08-12T07:05:36;3.25;;;2.00;;
64520;SDS011;50896;46.714;17.322;2023-08-12T07:08:03;2.45;;;2.17;;
64520;SDS011;50896;46.714;17.322;2023-08-12T07:10:30;2.70;;;2.30;;
64520;SDS011;50896;46.714;17.322;2023-08-12T07:12:57;3.72;;;2.70;;
64520;SDS011;50896;46.714;17.322;2023-08-12T07:15:24;5.30;;;2.42;;
64520;SDS011;50896;46.714;17.322;2023-08-12T07:17:51;2.70;;;2.38;;
64520;SDS011;50896;46.714;17.322;2023-08-12T07:20:18;2.70;;;2.15;;
64520;SDS011;50896;46.714;17.322;2023-08-12T07:22:44;2.38;;;2.10;;
64520;SDS011;50896;46.714;17.322;2023-08-12T07:25:11;3.58;;;2.72;;
64520;SDS011;50896;46.714;17.322;2023-08-12T07:27:38;2.53;;;2.28;;
64520;SDS011;50896;46.714;17.322;2023-08-12T07:30:06;4.47;;;2.42;;
64520;SDS011;50896;46.714;17.322;2023-08-12T07:32:36;5.05;;;2.53;;
64520;SDS011;50896;46.714;17.322;2023-08-12T07:35:04;3.47;;;2.40;;
64520;SDS011;50896;46.714;17.322;2023-08-12T07:37:32;3.55;;;2.17;;
64520;SDS011;50896;46.714;17.322;2023-08-12T07:39:59;2.60;;;2.40;;
64520;SDS011;50896;46.714;17.322;2023-08-12T07:42:26;4.53;;;2.65;;
64520;SDS011;50896;46.714;17.322;2023-08-12T07:44:53;2.67;;;2.30;;
64520;SDS011;50896;46.714;17.322;2023-08-12T07:47:19;3.70;;;2.60;;
64520;SDS011;50896;46.714;17.322;2023-08-12T07:49:46;3.10;;;2.38;;
64520;SDS011;50896;46.714;17.322;2023-08-12T07:52:13;2.70;;;2.40;;
64520;SDS011;50896;46.714;17.322;2023-08-12T07:54:40;3.42;;;2.45;;
64520;SDS011;50896;46.714;17.322;2023-08-12T07:57:07;4.57;;;2.53;;
64520;SDS011;50896;46.714;17.322;2023-08-12T07:59:34;4.32;;;2.05;;
64520;SDS011;50896;46.714;17.322;2023-08-12T08:02:00;3.38;;;2.55;;
64520;SDS011;50896;46.714;17.322;2023-08-12T08:04:27;4.28;;;2.50;;
64520;SDS011;50896;46.714;17.322;2023-08-12T08:06:54;3.35;;;2.40;;
64520;SDS011;50896;46.714;17.322;2023-08-12T08:09:21;2.60;;;2.20;;
64520;SDS011;50896;46.714;17.322;2023-08-12T08:11:47;6.13;;;2.20;;
64520;SDS011;50896;46.714;17.322;2023-08-12T08:14:14;4.80;;;2.33;;
64520;SDS011;50896;46.714;17.322;2023-08-12T08:16:41;2.63;;;2.05;;
64520;SDS011;50896;46.714;17.322;2023-08-12T08:19:08;2.55;;;2.00;;
64520;SDS011;50896;46.714;17.322;2023-08-12T08:21:38;2.20;;;2.00;;
64520;SDS011;50896;46.714;17.322;2023-08-12T08:24:05;3.00;;;2.53;;
64520;SDS011;50896;46.714;17.322;2023-08-12T08:26:32;4.85;;;2.40;;
64520;SDS011;50896;46.714;17.322;2023-08-12T08:28:59;2.70;;;2.10;;
64520;SDS011;50896;46.714;17.322;2023-08-12T08:31:26;6.07;;;2.35;;
64520;SDS011;50896;46.714;17.322;2023-08-12T08:33:53;2.45;;;2.05;;
64520;SDS011;50896;46.714;17.322;2023-08-12T08:36:20;3.78;;;2.30;;
64520;SDS011;50896;46.714;17.322;2023-08-12T08:38:47;2.58;;;2.05;;
64520;SDS011;50896;46.714;17.322;2023-08-12T08:41:14;2.38;;;2.08;;
64520;SDS011;50896;46.714;17.322;2023-08-12T08:43:43;3.00;;;2.13;;
64520;SDS011;50896;46.714;17.322;2023-08-12T08:46:10;4.85;;;2.33;;
64520;SDS011;50896;46.714;17.322;2023-08-12T08:48:41;3.40;;;2.35;;
64520;SDS011;50896;46.714;17.322;2023-08-12T08:51:09;2.45;;;2.15;;
64520;SDS011;50896;46.714;17.322;2023-08-12T08:53:37;3.65;;;2.10;;
64520;SDS011;50896;46.714;17.322;2023-08-12T08:56:06;3.53;;;2.10;;
64520;SDS011;50896;46.714;17.322;2023-08-12T08:58:40;3.00;;;2.05;;
64520;SDS011;50896;46.714;17.322;2023-08-12T09:01:07;4.25;;;1.95;;
64520;SDS011;50896;46.714;17.322;2023-08-12T09:03:35;4.47;;;1.88;;
64520;SDS011;50896;46.714;17.322;2023-08-12T09:06:04;3.65;;;2.00;;
64520;SDS011;50896;46.714;17.322;2023-08-12T09:08:31;3.72;;;1.73;;
64520;SDS011;50896;46.714;17.322;2023-08-12T09:10:59;2.33;;;2.00;;
64520;SDS011;50896;46.714;17.322;2023-08-12T09:13:26;2.40;;;1.77;;
64520;SDS011;50896;46.714;17.322;2023-08-12T09:15:54;3.13;;;1.88;;
64520;SDS011;50896;46.714;17.322;2023-08-12T09:18:21;2.00;;;1.67;;
64520;SDS011;50896;46.714;17.322;2023-08-12T09:20:51;3.63;;;2.10;;
64520;SDS011;50896;46.714;17.322;2023-08-12T09:23:18;2.67;;;2.08;;
64520;SDS011;50896;46.714;17.322;2023-08-12T09:25:45;3.00;;;2.00;;
64520;SDS011;50896;46.714;17.322;2023-08-12T09:28:12;5.30;;;2.00;;
64520;SDS011;50896;46.714;17.322;2023-08-12T09:30:39;3.53;;;1.90;;
64520;SDS011;50896;46.714;17.322;2023-08-12T09:33:07;2.35;;;1.58;;
64520;SDS011;50896;46.714;17.322;2023-08-12T09:35:38;2.92;;;1.80;;
64520;SDS011;50896;46.714;17.322;2023-08-12T09:38:07;2.78;;;2.00;;
64520;SDS011;50896;46.714;17.322;2023-08-12T09:40:39;4.78;;;1.90;;
64520;SDS011;50896;46.714;17.322;2023-08-12T09:43:06;3.08;;;2.08;;
64520;SDS011;50896;46.714;17.322;2023-08-12T09:45:34;3.17;;;1.70;;
64520;SDS011;50896;46.714;17.322;2023-08-12T09:48:01;2.78;;;1.75;;
64520;SDS011;50896;46.714;17.322;2023-08-12T09:50:29;1.98;;;1.70;;
64520;SDS011;50896;46.714;17.322;2023-08-12T09:52:55;5.38;;;1.90;;
64520;SDS011;50896;46.714;17.322;2023-08-12T09:55:24;2.30;;;2.10;;
64520;SDS011;50896;46.714;17.322;2023-08-12T09:57:52;2.38;;;1.75;;
64520;SDS011;50896;46.714;17.322;2023-08-12T10:00:22;4.40;;;2.00;;
64520;SDS011;50896;46.714;17.322;2023-08-12T10:02:51;2.95;;;1.63;;
64520;SDS011;50896;46.714;17.322;2023-08-12T10:05:21;3.72;;;1.75;;
64520;SDS011;50896;46.714;17.322;2023-08-12T10:07:53;2.42;;;1.83;;
64520;SDS011;50896;46.714;17.322;2023-08-12T10:10:21;4.28;;;1.80;;
64520;SDS011;50896;46.714;17.322;2023-08-12T10:12:50;1.77;;;1.67;;
64520;SDS011;50896;46.714;17.322;2023-08-12T10:15:18;2.20;;;1.58;;
64520;SDS011;50896;46.714;17.322;2023-08-12T10:17:46;2.60;;;1.90;;
64520;SDS011;50896;46.714;17.322;2023-08-12T10:20:14;2.35;;;1.70;;
64520;SDS011;50896;46.714;17.322;2023-08-12T10:22:46;5.10;;;2.03;;
64520;SDS011;50896;46.714;17.322;2023-08-12T10:25:13;3.58;;;1.80;;
64520;SDS011;50896;46.714;17.322;2023-08-12T10:27:40;7.57;;;2.45;;
64520;SDS011;50896;46.714;17.322;2023-08-12T10:30:07;2.88;;;1.92;;
64520;SDS011;50896;46.714;17.322;2023-08-12T10:32:36;2.05;;;1.70;;
64520;SDS011;50896;46.714;17.322;2023-08-12T10:35:04;2.80;;;1.70;;
64520;SDS011;50896;46.714;17.322;2023-08-12T10:37:33;2.10;;;1.70;;
64520;SDS011;50896;46.714;17.322;2023-08-12T10:40:04;5.07;;;2.10;;
64520;SDS011;50896;46.714;17.322;2023-08-12T10:42:41;3.95;;;1.90;;
64520;SDS011;50896;46.714;17.322;2023-08-12T10:45:13;6.32;;;1.65;;
64520;SDS011;50896;46.714;17.322;2023-08-12T10:47:42;3.20;;;1.80;;
64520;SDS011;50896;46.714;17.322;2023-08-12T10:50:20;3.05;;;2.03;;
64520;SDS011;50896;46.714;17.322;2023-08-12T10:52:52;2.65;;;1.70;;
64520;SDS011;50896;46.714;17.322;2023-08-12T10:55:20;2.38;;;1.73;;
64520;SDS011;50896;46.714;17.322;2023-08-12T10:57:52;2.55;;;1.90;;
64520;SDS011;50896;46.714;17.322;2023-08-12T11:00:23;2.90;;;2.00;;
64520;SDS011;50896;46.714;17.322;2023-08-12T11:02:53;3.58;;;1.88;;
64520;SDS011;50896;46.714;17.322;2023-08-12T11:05:21;2.28;;;1.77;;
64520;SDS011;50896;46.714;17.322;2023-08-12T11:07:59;3.25;;;1.75;;
64520;SDS011;50896;46.714;17.322;2023-08-12T11:10:33;4.15;;;1.70;;
64520;SDS011;50896;46.714;17.322;2023-08-12T11:13:01;1.88;;;1.63;;
64520;SDS011;50896;46.714;17.322;2023-08-12T11:15:36;3.50;;;1.70;;
64520;SDS011;50896;46.714;17.322;2023-08-12T11:18:04;2.50;;;1.60;;
64520;SDS011;50896;46.714;17.322;2023-08-12T11:20:33;3.53;;;1.60;;
64520;SDS011;50896;46.714;17.322;2023-08-12T11:23:01;3.17;;;2.08;;
64520;SDS011;50896;46.714;17.322;2023-08-12T11:25:29;3.28;;;1.75;;
64520;SDS011;50896;46.714;17.322;2023-08-12T11:27:57;4.90;;;1.58;;
64520;SDS011;50896;46.714;17.322;2023-08-12T11:30:25;2.95;;;1.85;;
64520;SDS011;50896;46.714;17.322;2023-08-12T11:32:56;3.65;;;1.63;;
64520;SDS011;50896;46.714;17.322;2023-08-12T11:35:24;2.30;;;1.80;;
64520;SDS011;50896;46.714;17.322;2023-08-12T11:37:52;2.00;;;1.70;;
64520;SDS011;50896;46.714;17.322;2023-08-12T11:40:20;1.77;;;1.67;;
64520;SDS011;50896;46.714;17.322;2023-08-12T11:42:47;1.63;;;1.40;;
64520;SDS011;50896;46.714;17.322;2023-08-12T11:47:47;3.30;;;1.50;;
64520;SDS011;50896;46.714;17.322;2023-08-12T11:50:24;2.53;;;1.80;;
64520;SDS011;50896;46.714;17.322;2023-08-12T11:52:52;2.10;;;1.52;;
64520;SDS011;50896;46.714;17.322;2023-08-12T11:55:20;2.65;;;1.40;;
64520;SDS011;50896;46.714;17.322;2023-08-12T11:57:47;2.47;;;1.60;;
64520;SDS011;50896;46.714;17.322;2023-08-12T12:00:14;1.85;;;1.50;;
64520;SDS011;50896;46.714;17.322;2023-08-12T12:05:13;2.95;;;1.40;;
64520;SDS011;50896;46.714;17.322;2023-08-12T12:07:40;2.85;;;1.67;;
64520;SDS011;50896;46.714;17.322;2023-08-12T12:10:07;2.55;;;1.63;;
64520;SDS011;50896;46.714;17.322;2023-08-12T12:12:35;1.77;;;1.60;;
64520;SDS011;50896;46.714;17.322;2023-08-12T12:15:03;1.80;;;1.38;;
64520;SDS011;50896;46.714;17.322;2023-08-12T12:17:31;2.13;;;1.35;;
64520;SDS011;50896;46.714;17.322;2023-08-12T12:20:00;5.45;;;2.03;;
64520;SDS011;50896;46.714;17.322;2023-08-12T12:22:30;3.63;;;1.55;;
64520;SDS011;50896;46.714;17.322;2023-08-12T12:25:00;2.22;;;1.60;;
64520;SDS011;50896;46.714;17.322;2023-08-12T12:27:31;1.55;;;1.45;;
64520;SDS011;50896;46.714;17.322;2023-08-12T12:29:58;2.88;;;1.48;;
64520;SDS011;50896;46.714;17.322;2023-08-12T12:32:28;2.58;;;1.40;;
64520;SDS011;50896;46.714;17.322;2023-08-12T12:34:55;2.03;;;1.80;;
64520;SDS011;50896;46.714;17.322;2023-08-12T12:37:22;2.50;;;1.85;;
64520;SDS011;50896;46.714;17.322;2023-08-12T12:39:49;3.42;;;1.60;;
64520;SDS011;50896;46.714;17.322;2023-08-12T12:42:16;2.00;;;1.63;;
64520;SDS011;50896;46.714;17.322;2023-08-12T12:44:42;3.28;;;1.73;;
64520;SDS011;50896;46.714;17.322;2023-08-12T12:47:09;2.15;;;1.67;;
64520;SDS011;50896;46.714;17.322;2023-08-12T12:49:39;2.35;;;1.70;;
64520;SDS011;50896;46.714;17.322;2023-08-12T12:52:07;4.22;;;1.65;;
64520;SDS011;50896;46.714;17.322;2023-08-12T12:54:34;2.20;;;1.70;;
64520;SDS011;50896;46.714;17.322;2023-08-12T12:57:01;3.22;;;1.50;;
64520;SDS011;50896;46.714;17.322;2023-08-12T12:59:30;1.63;;;1.48;;
64520;SDS011;50896;46.714;17.322;2023-08-12T13:01:57;2.20;;;1.58;;
64520;SDS011;50896;46.714;17.322;2023-08-12T13:04:24;1.95;;;1.52;;
64520;SDS011;50896;46.714;17.322;2023-08-12T13:06:51;2.83;;;1.88;;
64520;SDS011;50896;46.714;17.322;2023-08-12T13:09:17;1.85;;;1.70;;
64520;SDS011;50896;46.714;17.322;2023-08-12T13:11:44;2.58;;;1.52;;
64520;SDS011;50896;46.714;17.322;2023-08-12T13:14:11;2.28;;;1.70;;
64520;SDS011;50896;46.714;17.322;2023-08-12T13:16:38;2.60;;;1.65;;
64520;SDS011;50896;46.714;17.322;2023-08-12T13:19:05;1.92;;;1.65;;
64520;SDS011;50896;46.714;17.322;2023-08-12T13:21:31;3.13;;;1.75;;
64520;SDS011;50896;46.714;17.322;2023-08-12T13:23:59;3.83;;;1.95;;
64520;SDS011;50896;46.714;17.322;2023-08-12T13:26:28;1.83;;;1.55;;
64520;SDS011;50896;46.714;17.322;2023-08-12T13:28:54;4.57;;;1.65;;
64520;SDS011;50896;46.714;17.322;2023-08-12T13:31:21;2.08;;;1.60;;
64520;SDS011;50896;46.714;17.322;2023-08-12T13:33:49;2.05;;;1.73;;
64520;SDS011;50896;46.714;17.322;2023-08-12T13:36:16;1.88;;;1.63;;
64520;SDS011;50896;46.714;17.322;2023-08-12T13:38:43;2.03;;;1.52;;
64520;SDS011;50896;46.714;17.322;2023-08-12T13:41:10;3.20;;;1.60;;
64520;SDS011;50896;46.714;17.322;2023-08-12T13:43:37;2.65;;;1.73;;
64520;SDS011;50896;46.714;17.322;2023-08-12T13:46:04;3.78;;;1.67;;
64520;SDS011;50896;46.714;17.322;2023-08-12T13:48:31;2.33;;;1.67;;
64520;SDS011;50896;46.714;17.322;2023-08-12T13:50:58;1.80;;;1.55;;
64520;SDS011;50896;46.714;17.322;2023-08-12T13:53:27;2.00;;;1.80;;
64520;SDS011;50896;46.714;17.322;2023-08-12T13:55:54;3.28;;;1.50;;
64520;SDS011;50896;46.714;17.322;2023-08-12T13:58:21;2.83;;;1.70;;
64520;SDS011;50896;46.714;17.322;2023-08-12T14:00:47;3.28;;;1.80;;
64520;SDS011;50896;46.714;17.322;2023-08-12T14:03:14;3.60;;;1.75;;
64520;SDS011;50896;46.714;17.322;2023-08-12T14:05:41;4.15;;;1.70;;
64520;SDS011;50896;46.714;17.322;2023-08-12T14:08:08;2.10;;;1.50;;
64520;SDS011;50896;46.714;17.322;2023-08-12T14:10:35;5.07;;;1.80;;
64520;SDS011;50896;46.714;17.322;2023-08-12T14:13:02;2.17;;;1.60;;
64520;SDS011;50896;46.714;17.322;2023-08-12T14:15:29;4.97;;;1.77;;
64520;SDS011;50896;46.714;17.322;2023-08-12T14:17:56;2.58;;;1.52;;
64520;SDS011;50896;46.714;17.322;2023-08-12T14:20:23;2.63;;;1.60;;
64520;SDS011;50896;46.714;17.322;2023-08-12T14:22:50;1.83;;;1.60;;
64520;SDS011;50896;46.714;17.322;2023-08-12T14:25:17;3.10;;;1.60;;
64520;SDS011;50896;46.714;17.322;2023-08-12T14:27:43;1.75;;;1.50;;
64520;SDS011;50896;46.714;17.322;2023-08-12T14:30:10;2.80;;;1.58;;
64520;SDS011;50896;46.714;17.322;2023-08-12T14:32:38;2.13;;;1.42;;
64520;SDS011;50896;46.714;17.322;2023-08-12T14:35:05;3.33;;;1.80;;
64520;SDS011;50896;46.714;17.322;2023-08-12T14:37:32;3.40;;;1.58;;
64520;SDS011;50896;46.714;17.322;2023-08-12T14:39:59;2.55;;;1.63;;
64520;SDS011;50896;46.714;17.322;2023-08-12T14:42:26;2.58;;;1.58;;
64520;SDS011;50896;46.714;17.322;2023-08-12T14:44:53;2.00;;;1.63;;
64520;SDS011;50896;46.714;17.322;2023-08-12T14:47:20;2.17;;;1.45;;